sensor_id;sensor_type;location;lat;lon;timestamp;temperature;humidity
22706;DHT22;11520;51.198;4.468;2023-08-06T00:00:16;15.60;99.90
22706;DHT22;11520;51.198;4.468;2023-08-06T00:02:41;15.60;99.90
22706;DHT22;11520;51.198;4.468;2023-08-06T00:05:07;15.60;99.90
22706;DHT22;11520;51.198;4.468;2023-08-06T00:07:33;15.50;99.90
22706;DHT22;11520;51.198;4.468;2023-08-06T00:09:58;15.60;99.90
22706;DHT22;11520;51.198;4.468;2023-08-06T00:12:24;15.70;99.90
22706;DHT22;11520;51.198;4.468;2023-08-06T00:14:51;15.70;99.90
22706;DHT22;11520;51.198;4.468;2023-08-06T00:17:17;15.60;99.90
22706;DHT22;11520;51.198;4.468;2023-08-06T00:19:42;15.70;99.90
22706;DHT22;11520;51.198;4.468;2023-08-06T00:22:08;15.70;99.90
22706;DHT22;11520;51.198;4.468;2023-08-06T00:24:34;15.80;99.90
22706;DHT22;11520;51.198;4.468;2023-08-06T00:27:00;15.80;99.90
22706;DHT22;11520;51.198;4.468;2023-08-06T00:29:25;15.80;99.90
22706;DHT22;11520;51.198;4.468;2023-08-06T00:31:51;15.80;99.90
22706;DHT22;11520;51.198;4.468;2023-08-06T00:34:17;15.70;99.90
22706;DHT22;11520;51.198;4.468;2023-08-06T00:36:42;15.80;99.90
22706;DHT22;11520;51.198;4.468;2023-08-06T00:39:08;15.80;99.90
22706;DHT22;11520;51.198;4.468;2023-08-06T00:41:33;15.90;99.90
22706;DHT22;11520;51.198;4.468;2023-08-06T00:43:59;15.80;99.90
22706;DHT22;11520;51.198;4.468;2023-08-06T00:46:25;15.80;99.90
22706;DHT22;11520;51.198;4.468;2023-08-06T00:48:51;15.80;99.90
22706;DHT22;11520;51.198;4.468;2023-08-06T00:51:17;15.80;99.90
22706;DHT22;11520;51.198;4.468;2023-08-06T00:53:43;15.80;99.90
22706;DHT22;11520;51.198;4.468;2023-08-06T00:56:09;15.90;99.90
22706;DHT22;11520;51.198;4.468;2023-08-06T00:58:35;16.00;99.90
22706;DHT22;11520;51.198;4.468;2023-08-06T01:01:02;16.00;99.90
22706;DHT22;11520;51.198;4.468;2023-08-06T01:03:27;16.00;99.90
22706;DHT22;11520;51.198;4.468;2023-08-06T01:05:53;16.10;99.90
22706;DHT22;11520;51.198;4.468;2023-08-06T01:13:52;16.30;99.90
22706;DHT22;11520;51.198;4.468;2023-08-06T01:16:21;16.40;99.90
22706;DHT22;11520;51.198;4.468;2023-08-06T01:18:47;16.30;99.90
22706;DHT22;11520;51.198;4.468;2023-08-06T01:21:15;16.20;99.90
22706;DHT22;11520;51.198;4.468;2023-08-06T01:23:46;16.20;99.90
22706;DHT22;11520;51.198;4.468;2023-08-06T01:26:35;16.30;99.90
22706;DHT22;11520;51.198;4.468;2023-08-06T01:31:41;16.50;99.90
22706;DHT22;11520;51.198;4.468;2023-08-06T01:34:13;16.50;99.90
22706;DHT22;11520;51.198;4.468;2023-08-06T01:36:42;16.40;99.90
22706;DHT22;11520;51.198;4.468;2023-08-06T01:39:07;16.50;99.90
22706;DHT22;11520;51.198;4.468;2023-08-06T01:41:33;16.60;99.90
22706;DHT22;11520;51.198;4.468;2023-08-06T01:43:59;16.50;99.90
22706;DHT22;11520;51.198;4.468;2023-08-06T01:46:24;16.50;99.90
22706;DHT22;11520;51.198;4.468;2023-08-06T01:48:50;16.50;99.90
22706;DHT22;11520;51.198;4.468;2023-08-06T01:51:16;16.50;99.90
22706;DHT22;11520;51.198;4.468;2023-08-06T01:53:41;16.60;99.90
22706;DHT22;11520;51.198;4.468;2023-08-06T01:56:07;16.60;99.90
22706;DHT22;11520;51.198;4.468;2023-08-06T01:58:32;16.60;99.90
22706;DHT22;11520;51.198;4.468;2023-08-06T02:00:58;16.60;99.90
22706;DHT22;11520;51.198;4.468;2023-08-06T02:03:24;16.60;99.90
22706;DHT22;11520;51.198;4.468;2023-08-06T02:05:49;16.40;99.90
22706;DHT22;11520;51.198;4.468;2023-08-06T02:08:15;16.30;99.90
22706;DHT22;11520;51.198;4.468;2023-08-06T02:10:40;16.20;99.90
22706;DHT22;11520;51.198;4.468;2023-08-06T02:13:07;16.10;99.90
22706;DHT22;11520;51.198;4.468;2023-08-06T02:15:32;16.00;99.90
22706;DHT22;11520;51.198;4.468;2023-08-06T02:17:58;16.00;99.90
22706;DHT22;11520;51.198;4.468;2023-08-06T02:20:23;16.10;99.90
22706;DHT22;11520;51.198;4.468;2023-08-06T02:22:49;16.20;99.90
22706;DHT22;11520;51.198;4.468;2023-08-06T02:25:15;16.40;99.90
22706;DHT22;11520;51.198;4.468;2023-08-06T02:27:40;16.50;99.90
22706;DHT22;11520;51.198;4.468;2023-08-06T02:30:06;16.60;99.90
22706;DHT22;11520;51.198;4.468;2023-08-06T02:32:33;16.70;99.90
22706;DHT22;11520;51.198;4.468;2023-08-06T02:35:01;16.80;99.90
22706;DHT22;11520;51.198;4.468;2023-08-06T02:37:28;16.80;99.90
22706;DHT22;11520;51.198;4.468;2023-08-06T02:39:54;16.90;99.90
22706;DHT22;11520;51.198;4.468;2023-08-06T02:42:19;16.90;99.90
22706;DHT22;11520;51.198;4.468;2023-08-06T02:44:45;16.90;99.90
22706;DHT22;11520;51.198;4.468;2023-08-06T02:47:11;16.90;99.90
22706;DHT22;11520;51.198;4.468;2023-08-06T02:49:36;17.00;99.90
22706;DHT22;11520;51.198;4.468;2023-08-06T02:52:02;17.10;99.90
22706;DHT22;11520;51.198;4.468;2023-08-06T02:54:27;17.10;99.90
22706;DHT22;11520;51.198;4.468;2023-08-06T02:56:53;17.10;99.90
22706;DHT22;11520;51.198;4.468;2023-08-06T02:59:19;17.10;99.90
22706;DHT22;11520;51.198;4.468;2023-08-06T03:01:44;17.10;99.90
22706;DHT22;11520;51.198;4.468;2023-08-06T03:04:10;17.10;99.90
22706;DHT22;11520;51.198;4.468;2023-08-06T03:06:35;17.00;99.90
22706;DHT22;11520;51.198;4.468;2023-08-06T03:09:01;17.10;99.90
22706;DHT22;11520;51.198;4.468;2023-08-06T03:11:26;17.10;99.90
22706;DHT22;11520;51.198;4.468;2023-08-06T03:13:52;17.10;99.90
22706;DHT22;11520;51.198;4.468;2023-08-06T03:16:18;17.10;99.90
22706;DHT22;11520;51.198;4.468;2023-08-06T03:18:43;17.10;99.90
22706;DHT22;11520;51.198;4.468;2023-08-06T03:21:09;17.00;99.90
22706;DHT22;11520;51.198;4.468;2023-08-06T03:23:34;16.90;99.90
22706;DHT22;11520;51.198;4.468;2023-08-06T03:26:03;16.90;99.90
22706;DHT22;11520;51.198;4.468;2023-08-06T03:28:29;16.80;99.90
22706;DHT22;11520;51.198;4.468;2023-08-06T03:31:02;16.60;99.90
22706;DHT22;11520;51.198;4.468;2023-08-06T03:33:28;16.40;99.90
22706;DHT22;11520;51.198;4.468;2023-08-06T03:35:54;16.20;99.90
22706;DHT22;11520;51.198;4.468;2023-08-06T03:38:20;16.20;99.90
22706;DHT22;11520;51.198;4.468;2023-08-06T03:40:49;16.20;99.90
22706;DHT22;11520;51.198;4.468;2023-08-06T03:43:15;16.10;99.90
22706;DHT22;11520;51.198;4.468;2023-08-06T03:45:41;15.90;99.90
22706;DHT22;11520;51.198;4.468;2023-08-06T03:48:08;15.90;99.90
22706;DHT22;11520;51.198;4.468;2023-08-06T03:50:33;15.80;99.90
22706;DHT22;11520;51.198;4.468;2023-08-06T03:52:59;15.70;99.90
22706;DHT22;11520;51.198;4.468;2023-08-06T03:55:25;15.70;99.90
22706;DHT22;11520;51.198;4.468;2023-08-06T03:57:50;15.60;99.90
22706;DHT22;11520;51.198;4.468;2023-08-06T04:00:16;15.50;99.90
22706;DHT22;11520;51.198;4.468;2023-08-06T04:02:42;15.50;99.90
22706;DHT22;11520;51.198;4.468;2023-08-06T04:05:08;15.40;99.90
22706;DHT22;11520;51.198;4.468;2023-08-06T04:07:34;15.50;99.90
22706;DHT22;11520;51.198;4.468;2023-08-06T04:10:02;15.40;99.90
22706;DHT22;11520;51.198;4.468;2023-08-06T04:12:28;15.40;99.90
22706;DHT22;11520;51.198;4.468;2023-08-06T04:14:55;15.30;99.90
22706;DHT22;11520;51.198;4.468;2023-08-06T04:17:21;15.20;99.90
22706;DHT22;11520;51.198;4.468;2023-08-06T04:19:52;15.20;99.90
22706;DHT22;11520;51.198;4.468;2023-08-06T04:22:18;15.20;99.90
22706;DHT22;11520;51.198;4.468;2023-08-06T04:24:43;15.20;99.90
22706;DHT22;11520;51.198;4.468;2023-08-06T04:27:10;15.20;99.90
22706;DHT22;11520;51.198;4.468;2023-08-06T04:29:36;15.20;99.90
22706;DHT22;11520;51.198;4.468;2023-08-06T04:32:01;15.00;99.90
22706;DHT22;11520;51.198;4.468;2023-08-06T04:34:27;15.00;99.90
22706;DHT22;11520;51.198;4.468;2023-08-06T04:36:53;15.00;99.90
22706;DHT22;11520;51.198;4.468;2023-08-06T04:39:18;14.90;99.90
22706;DHT22;11520;51.198;4.468;2023-08-06T04:41:44;14.80;99.90
22706;DHT22;11520;51.198;4.468;2023-08-06T04:44:09;14.60;99.90
22706;DHT22;11520;51.198;4.468;2023-08-06T04:46:35;14.50;99.90
22706;DHT22;11520;51.198;4.468;2023-08-06T04:49:01;14.50;99.90
22706;DHT22;11520;51.198;4.468;2023-08-06T04:51:26;14.40;99.90
22706;DHT22;11520;51.198;4.468;2023-08-06T04:53:52;14.30;99.90
22706;DHT22;11520;51.198;4.468;2023-08-06T04:56:17;14.40;99.90
22706;DHT22;11520;51.198;4.468;2023-08-06T04:58:43;14.40;99.90
22706;DHT22;11520;51.198;4.468;2023-08-06T05:01:09;14.40;99.90
22706;DHT22;11520;51.198;4.468;2023-08-06T05:03:34;14.40;99.90
22706;DHT22;11520;51.198;4.468;2023-08-06T05:06:00;14.50;99.90
22706;DHT22;11520;51.198;4.468;2023-08-06T05:08:26;14.60;99.90
22706;DHT22;11520;51.198;4.468;2023-08-06T05:10:51;14.60;99.90
22706;DHT22;11520;51.198;4.468;2023-08-06T05:13:17;14.70;99.90
22706;DHT22;11520;51.198;4.468;2023-08-06T05:15:42;14.70;99.90
22706;DHT22;11520;51.198;4.468;2023-08-06T05:18:10;14.70;99.90
22706;DHT22;11520;51.198;4.468;2023-08-06T05:20:37;14.70;99.90
22706;DHT22;11520;51.198;4.468;2023-08-06T05:23:03;14.70;99.90
22706;DHT22;11520;51.198;4.468;2023-08-06T05:25:30;14.70;99.90
22706;DHT22;11520;51.198;4.468;2023-08-06T05:27:55;14.70;99.90
22706;DHT22;11520;51.198;4.468;2023-08-06T05:30:22;14.70;99.90
22706;DHT22;11520;51.198;4.468;2023-08-06T05:32:48;14.70;99.90
22706;DHT22;11520;51.198;4.468;2023-08-06T05:35:13;14.70;99.90
22706;DHT22;11520;51.198;4.468;2023-08-06T05:37:39;14.70;99.90
22706;DHT22;11520;51.198;4.468;2023-08-06T05:40:05;14.70;99.90
22706;DHT22;11520;51.198;4.468;2023-08-06T05:42:31;14.80;99.90
22706;DHT22;11520;51.198;4.468;2023-08-06T05:44:56;14.80;99.90
22706;DHT22;11520;51.198;4.468;2023-08-06T05:47:22;14.80;99.90
22706;DHT22;11520;51.198;4.468;2023-08-06T05:49:48;14.90;99.90
22706;DHT22;11520;51.198;4.468;2023-08-06T05:52:13;14.80;99.90
22706;DHT22;11520;51.198;4.468;2023-08-06T05:54:39;14.90;99.90
22706;DHT22;11520;51.198;4.468;2023-08-06T05:57:06;14.90;99.90
22706;DHT22;11520;51.198;4.468;2023-08-06T05:59:31;15.00;99.90
22706;DHT22;11520;51.198;4.468;2023-08-06T06:01:57;15.00;99.90
22706;DHT22;11520;51.198;4.468;2023-08-06T06:04:23;15.00;99.90
22706;DHT22;11520;51.198;4.468;2023-08-06T06:06:48;15.00;99.90
22706;DHT22;11520;51.198;4.468;2023-08-06T06:09:14;15.00;99.90
22706;DHT22;11520;51.198;4.468;2023-08-06T06:11:40;14.90;99.90
22706;DHT22;11520;51.198;4.468;2023-08-06T06:14:05;14.90;99.90
22706;DHT22;11520;51.198;4.468;2023-08-06T06:16:31;15.00;99.90
22706;DHT22;11520;51.198;4.468;2023-08-06T06:18:56;15.00;99.90
22706;DHT22;11520;51.198;4.468;2023-08-06T06:21:23;15.00;99.90
22706;DHT22;11520;51.198;4.468;2023-08-06T06:23:49;15.00;99.90
22706;DHT22;11520;51.198;4.468;2023-08-06T06:26:17;15.10;99.90
22706;DHT22;11520;51.198;4.468;2023-08-06T06:28:43;15.20;99.90
22706;DHT22;11520;51.198;4.468;2023-08-06T06:31:08;15.20;99.90
22706;DHT22;11520;51.198;4.468;2023-08-06T06:33:34;15.30;99.90
22706;DHT22;11520;51.198;4.468;2023-08-06T06:36:00;15.40;99.90
22706;DHT22;11520;51.198;4.468;2023-08-06T06:38:28;15.50;99.90
22706;DHT22;11520;51.198;4.468;2023-08-06T06:40:55;15.50;99.90
22706;DHT22;11520;51.198;4.468;2023-08-06T06:43:21;15.50;99.90
22706;DHT22;11520;51.198;4.468;2023-08-06T06:45:46;15.50;99.90
22706;DHT22;11520;51.198;4.468;2023-08-06T06:48:12;15.50;99.90
22706;DHT22;11520;51.198;4.468;2023-08-06T06:50:37;15.50;99.90
22706;DHT22;11520;51.198;4.468;2023-08-06T06:53:04;15.50;99.90
22706;DHT22;11520;51.198;4.468;2023-08-06T06:55:30;15.50;99.90
22706;DHT22;11520;51.198;4.468;2023-08-06T06:57:56;15.60;99.90
22706;DHT22;11520;51.198;4.468;2023-08-06T07:00:22;15.50;99.90
22706;DHT22;11520;51.198;4.468;2023-08-06T07:02:48;15.60;99.90
22706;DHT22;11520;51.198;4.468;2023-08-06T07:05:14;15.50;99.90
22706;DHT22;11520;51.198;4.468;2023-08-06T07:07:39;15.60;99.90
22706;DHT22;11520;51.198;4.468;2023-08-06T07:10:05;15.60;99.90
22706;DHT22;11520;51.198;4.468;2023-08-06T07:12:31;15.70;99.90
22706;DHT22;11520;51.198;4.468;2023-08-06T07:14:56;15.70;99.90
22706;DHT22;11520;51.198;4.468;2023-08-06T07:17:22;15.70;99.90
22706;DHT22;11520;51.198;4.468;2023-08-06T07:19:48;15.70;99.90
22706;DHT22;11520;51.198;4.468;2023-08-06T07:22:13;15.70;99.90
22706;DHT22;11520;51.198;4.468;2023-08-06T07:24:39;15.80;99.90
22706;DHT22;11520;51.198;4.468;2023-08-06T07:27:05;15.80;99.90
22706;DHT22;11520;51.198;4.468;2023-08-06T07:29:31;15.80;99.90
22706;DHT22;11520;51.198;4.468;2023-08-06T07:31:56;15.90;99.90
22706;DHT22;11520;51.198;4.468;2023-08-06T07:34:22;16.10;99.90
22706;DHT22;11520;51.198;4.468;2023-08-06T07:36:47;16.20;99.90
22706;DHT22;11520;51.198;4.468;2023-08-06T07:39:16;16.10;99.90
22706;DHT22;11520;51.198;4.468;2023-08-06T07:41:42;16.10;99.90
22706;DHT22;11520;51.198;4.468;2023-08-06T07:44:07;16.00;99.90
22706;DHT22;11520;51.198;4.468;2023-08-06T07:46:33;16.00;99.90
22706;DHT22;11520;51.198;4.468;2023-08-06T07:48:59;15.90;99.90
22706;DHT22;11520;51.198;4.468;2023-08-06T07:51:24;16.00;99.90
22706;DHT22;11520;51.198;4.468;2023-08-06T07:53:50;16.10;99.90
22706;DHT22;11520;51.198;4.468;2023-08-06T07:56:15;16.10;99.90
22706;DHT22;11520;51.198;4.468;2023-08-06T07:58:41;16.10;99.90
22706;DHT22;11520;51.198;4.468;2023-08-06T08:01:07;16.20;99.90
22706;DHT22;11520;51.198;4.468;2023-08-06T08:03:32;16.30;99.90
22706;DHT22;11520;51.198;4.468;2023-08-06T08:05:59;16.40;99.90
22706;DHT22;11520;51.198;4.468;2023-08-06T08:08:25;16.50;99.90
22706;DHT22;11520;51.198;4.468;2023-08-06T08:10:50;16.60;99.90
22706;DHT22;11520;51.198;4.468;2023-08-06T08:13:16;16.50;99.90
22706;DHT22;11520;51.198;4.468;2023-08-06T08:15:42;16.60;99.90
22706;DHT22;11520;51.198;4.468;2023-08-06T08:18:07;16.70;99.90
22706;DHT22;11520;51.198;4.468;2023-08-06T08:20:33;16.80;99.90
22706;DHT22;11520;51.198;4.468;2023-08-06T08:23:00;16.70;99.90
22706;DHT22;11520;51.198;4.468;2023-08-06T08:25:26;16.70;99.90
22706;DHT22;11520;51.198;4.468;2023-08-06T08:27:53;16.80;99.90
22706;DHT22;11520;51.198;4.468;2023-08-06T08:30:19;16.80;99.90
22706;DHT22;11520;51.198;4.468;2023-08-06T08:32:44;16.80;99.90
22706;DHT22;11520;51.198;4.468;2023-08-06T08:35:10;16.90;99.90
22706;DHT22;11520;51.198;4.468;2023-08-06T08:37:38;17.10;99.90
22706;DHT22;11520;51.198;4.468;2023-08-06T08:40:05;17.20;99.90
22706;DHT22;11520;51.198;4.468;2023-08-06T08:42:31;17.30;99.90
22706;DHT22;11520;51.198;4.468;2023-08-06T08:44:58;17.30;99.90
22706;DHT22;11520;51.198;4.468;2023-08-06T08:47:26;17.20;99.90
22706;DHT22;11520;51.198;4.468;2023-08-06T08:49:54;17.10;99.90
22706;DHT22;11520;51.198;4.468;2023-08-06T08:52:21;17.20;99.90
22706;DHT22;11520;51.198;4.468;2023-08-06T08:54:48;17.30;99.90
22706;DHT22;11520;51.198;4.468;2023-08-06T08:57:18;17.40;99.90
22706;DHT22;11520;51.198;4.468;2023-08-06T08:59:45;17.40;99.90
22706;DHT22;11520;51.198;4.468;2023-08-06T09:02:14;17.50;99.90
22706;DHT22;11520;51.198;4.468;2023-08-06T09:04:41;17.50;99.90
22706;DHT22;11520;51.198;4.468;2023-08-06T09:07:09;17.40;99.90
22706;DHT22;11520;51.198;4.468;2023-08-06T09:09:37;17.20;99.90
22706;DHT22;11520;51.198;4.468;2023-08-06T09:12:16;17.10;99.90
22706;DHT22;11520;51.198;4.468;2023-08-06T09:14:41;17.10;99.90
22706;DHT22;11520;51.198;4.468;2023-08-06T09:17:08;17.10;99.90
22706;DHT22;11520;51.198;4.468;2023-08-06T09:19:34;17.00;99.90
22706;DHT22;11520;51.198;4.468;2023-08-06T09:22:00;16.80;99.90
22706;DHT22;11520;51.198;4.468;2023-08-06T09:24:25;16.80;99.90
22706;DHT22;11520;51.198;4.468;2023-08-06T09:26:54;16.80;99.90
22706;DHT22;11520;51.198;4.468;2023-08-06T09:29:20;16.90;99.90
22706;DHT22;11520;51.198;4.468;2023-08-06T09:31:48;16.90;99.90
22706;DHT22;11520;51.198;4.468;2023-08-06T09:34:18;16.90;99.90
22706;DHT22;11520;51.198;4.468;2023-08-06T09:37:04;16.80;99.90
22706;DHT22;11520;51.198;4.468;2023-08-06T09:39:30;16.60;99.90
22706;DHT22;11520;51.198;4.468;2023-08-06T09:42:00;16.40;99.90
22706;DHT22;11520;51.198;4.468;2023-08-06T09:44:31;16.30;99.90
22706;DHT22;11520;51.198;4.468;2023-08-06T09:46:58;16.20;99.90
22706;DHT22;11520;51.198;4.468;2023-08-06T09:49:40;16.40;99.90
22706;DHT22;11520;51.198;4.468;2023-08-06T09:52:13;16.40;99.90
22706;DHT22;11520;51.198;4.468;2023-08-06T09:54:39;16.50;99.90
22706;DHT22;11520;51.198;4.468;2023-08-06T09:57:05;16.50;99.90
22706;DHT22;11520;51.198;4.468;2023-08-06T09:59:32;16.40;99.90
22706;DHT22;11520;51.198;4.468;2023-08-06T10:01:59;16.20;99.90
22706;DHT22;11520;51.198;4.468;2023-08-06T10:04:24;16.10;99.90
22706;DHT22;11520;51.198;4.468;2023-08-06T10:06:52;15.90;99.90
22706;DHT22;11520;51.198;4.468;2023-08-06T10:09:18;15.70;99.90
22706;DHT22;11520;51.198;4.468;2023-08-06T10:11:50;15.60;99.90
22706;DHT22;11520;51.198;4.468;2023-08-06T10:14:30;15.50;99.90
22706;DHT22;11520;51.198;4.468;2023-08-06T10:16:58;15.50;99.90
22706;DHT22;11520;51.198;4.468;2023-08-06T10:19:27;15.50;99.90
22706;DHT22;11520;51.198;4.468;2023-08-06T10:24:49;15.80;99.90
22706;DHT22;11520;51.198;4.468;2023-08-06T10:29:55;16.00;99.90
22706;DHT22;11520;51.198;4.468;2023-08-06T10:32:21;16.10;99.90
22706;DHT22;11520;51.198;4.468;2023-08-06T10:37:20;16.00;99.90
22706;DHT22;11520;51.198;4.468;2023-08-06T10:39:51;16.10;99.90
22706;DHT22;11520;51.198;4.468;2023-08-06T10:42:27;16.20;99.90
22706;DHT22;11520;51.198;4.468;2023-08-06T10:45:15;16.20;99.90
22706;DHT22;11520;51.198;4.468;2023-08-06T10:47:46;16.30;99.90
22706;DHT22;11520;51.198;4.468;2023-08-06T10:50:16;16.40;99.90
22706;DHT22;11520;51.198;4.468;2023-08-06T10:52:46;16.40;99.90
22706;DHT22;11520;51.198;4.468;2023-08-06T10:55:13;16.30;99.90
22706;DHT22;11520;51.198;4.468;2023-08-06T10:57:39;16.50;99.90
22706;DHT22;11520;51.198;4.468;2023-08-06T11:00:06;16.50;99.90
22706;DHT22;11520;51.198;4.468;2023-08-06T11:02:34;16.40;99.90
22706;DHT22;11520;51.198;4.468;2023-08-06T11:05:08;16.50;99.90
22706;DHT22;11520;51.198;4.468;2023-08-06T11:07:36;16.70;99.90
22706;DHT22;11520;51.198;4.468;2023-08-06T11:10:07;16.80;99.90
22706;DHT22;11520;51.198;4.468;2023-08-06T11:12:33;16.90;99.90
22706;DHT22;11520;51.198;4.468;2023-08-06T11:15:00;17.00;99.90
22706;DHT22;11520;51.198;4.468;2023-08-06T11:17:31;17.00;99.90
22706;DHT22;11520;51.198;4.468;2023-08-06T11:20:03;17.10;99.90
22706;DHT22;11520;51.198;4.468;2023-08-06T11:22:30;17.20;99.90
22706;DHT22;11520;51.198;4.468;2023-08-06T11:24:55;17.20;99.90
22706;DHT22;11520;51.198;4.468;2023-08-06T11:27:21;17.40;99.90
22706;DHT22;11520;51.198;4.468;2023-08-06T11:29:47;17.40;99.90
22706;DHT22;11520;51.198;4.468;2023-08-06T11:32:13;17.30;99.90
22706;DHT22;11520;51.198;4.468;2023-08-06T11:34:39;17.30;99.90
22706;DHT22;11520;51.198;4.468;2023-08-06T11:37:06;17.30;99.90
22706;DHT22;11520;51.198;4.468;2023-08-06T11:39:35;17.40;99.90
22706;DHT22;11520;51.198;4.468;2023-08-06T11:42:07;17.50;99.90
22706;DHT22;11520;51.198;4.468;2023-08-06T11:44:36;17.30;99.90
22706;DHT22;11520;51.198;4.468;2023-08-06T11:47:05;17.40;99.90
22706;DHT22;11520;51.198;4.468;2023-08-06T11:49:47;17.20;99.90
22706;DHT22;11520;51.198;4.468;2023-08-06T11:52:22;17.10;99.90
22706;DHT22;11520;51.198;4.468;2023-08-06T11:55:07;16.90;99.90
22706;DHT22;11520;51.198;4.468;2023-08-06T11:57:39;16.80;99.90
22706;DHT22;11520;51.198;4.468;2023-08-06T12:00:07;16.60;99.90
22706;DHT22;11520;51.198;4.468;2023-08-06T12:02:34;16.70;99.90
22706;DHT22;11520;51.198;4.468;2023-08-06T12:05:11;16.70;99.90
22706;DHT22;11520;51.198;4.468;2023-08-06T12:07:42;16.90;99.90
22706;DHT22;11520;51.198;4.468;2023-08-06T12:10:08;16.90;99.90
22706;DHT22;11520;51.198;4.468;2023-08-06T12:12:37;16.80;99.90
22706;DHT22;11520;51.198;4.468;2023-08-06T12:15:04;16.60;99.90
22706;DHT22;11520;51.198;4.468;2023-08-06T12:17:31;16.50;99.90
22706;DHT22;11520;51.198;4.468;2023-08-06T12:19:57;16.40;99.90
22706;DHT22;11520;51.198;4.468;2023-08-06T12:22:23;16.50;99.90
22706;DHT22;11520;51.198;4.468;2023-08-06T12:24:48;16.60;99.90
22706;DHT22;11520;51.198;4.468;2023-08-06T12:27:14;16.50;99.90
22706;DHT22;11520;51.198;4.468;2023-08-06T12:29:44;16.50;99.90
22706;DHT22;11520;51.198;4.468;2023-08-06T12:32:10;16.60;99.90
22706;DHT22;11520;51.198;4.468;2023-08-06T12:34:41;16.70;99.90
22706;DHT22;11520;51.198;4.468;2023-08-06T12:37:08;16.60;99.90
22706;DHT22;11520;51.198;4.468;2023-08-06T12:39:36;16.60;99.90
22706;DHT22;11520;51.198;4.468;2023-08-06T12:42:03;16.50;99.90
22706;DHT22;11520;51.198;4.468;2023-08-06T12:44:29;16.40;99.90
22706;DHT22;11520;51.198;4.468;2023-08-06T12:46:55;16.30;99.90
22706;DHT22;11520;51.198;4.468;2023-08-06T12:49:22;16.30;99.90
22706;DHT22;11520;51.198;4.468;2023-08-06T12:51:48;16.30;99.90
22706;DHT22;11520;51.198;4.468;2023-08-06T12:54:16;16.30;99.90
22706;DHT22;11520;51.198;4.468;2023-08-06T12:56:41;16.00;99.90
22706;DHT22;11520;51.198;4.468;2023-08-06T12:59:07;16.00;99.90
22706;DHT22;11520;51.198;4.468;2023-08-06T13:01:33;16.00;99.90
22706;DHT22;11520;51.198;4.468;2023-08-06T13:03:59;16.00;99.90
22706;DHT22;11520;51.198;4.468;2023-08-06T13:06:25;16.10;99.90
22706;DHT22;11520;51.198;4.468;2023-08-06T13:08:51;16.10;99.90
22706;DHT22;11520;51.198;4.468;2023-08-06T13:11:16;15.90;99.90
22706;DHT22;11520;51.198;4.468;2023-08-06T13:13:42;15.80;99.90
22706;DHT22;11520;51.198;4.468;2023-08-06T13:16:08;15.90;99.90
22706;DHT22;11520;51.198;4.468;2023-08-06T13:18:34;16.10;99.90
22706;DHT22;11520;51.198;4.468;2023-08-06T13:20:59;16.10;99.90
22706;DHT22;11520;51.198;4.468;2023-08-06T13:23:25;16.10;99.90
22706;DHT22;11520;51.198;4.468;2023-08-06T13:25:50;16.10;99.90
22706;DHT22;11520;51.198;4.468;2023-08-06T13:28:16;15.90;99.90
22706;DHT22;11520;51.198;4.468;2023-08-06T13:30:42;15.70;99.90
22706;DHT22;11520;51.198;4.468;2023-08-06T13:33:08;15.40;99.90
22706;DHT22;11520;51.198;4.468;2023-08-06T13:35:34;15.30;99.90
22706;DHT22;11520;51.198;4.468;2023-08-06T13:37:59;15.20;99.90
22706;DHT22;11520;51.198;4.468;2023-08-06T13:40:28;15.20;99.90
22706;DHT22;11520;51.198;4.468;2023-08-06T13:42:54;15.10;99.90
22706;DHT22;11520;51.198;4.468;2023-08-06T13:45:19;15.20;99.90
22706;DHT22;11520;51.198;4.468;2023-08-06T13:47:45;15.20;99.90
22706;DHT22;11520;51.198;4.468;2023-08-06T13:50:11;15.20;99.90
22706;DHT22;11520;51.198;4.468;2023-08-06T13:52:36;15.20;99.90
22706;DHT22;11520;51.198;4.468;2023-08-06T13:55:02;15.30;99.90
22706;DHT22;11520;51.198;4.468;2023-08-06T13:57:29;15.30;99.90
22706;DHT22;11520;51.198;4.468;2023-08-06T13:59:56;15.30;99.90
22706;DHT22;11520;51.198;4.468;2023-08-06T14:02:22;15.50;99.90
22706;DHT22;11520;51.198;4.468;2023-08-06T14:04:48;15.50;99.90
22706;DHT22;11520;51.198;4.468;2023-08-06T14:07:13;15.40;99.90
22706;DHT22;11520;51.198;4.468;2023-08-06T14:09:39;15.50;99.90
22706;DHT22;11520;51.198;4.468;2023-08-06T14:12:06;15.50;99.90
22706;DHT22;11520;51.198;4.468;2023-08-06T14:14:31;15.40;99.90
22706;DHT22;11520;51.198;4.468;2023-08-06T14:16:57;15.50;99.90
22706;DHT22;11520;51.198;4.468;2023-08-06T14:19:23;15.50;99.90
22706;DHT22;11520;51.198;4.468;2023-08-06T14:21:49;15.40;99.90
22706;DHT22;11520;51.198;4.468;2023-08-06T14:24:14;15.40;99.90
22706;DHT22;11520;51.198;4.468;2023-08-06T14:26:40;15.40;99.90
22706;DHT22;11520;51.198;4.468;2023-08-06T14:29:06;15.40;99.90
22706;DHT22;11520;51.198;4.468;2023-08-06T14:31:33;15.30;99.90
22706;DHT22;11520;51.198;4.468;2023-08-06T14:33:59;15.20;99.90
22706;DHT22;11520;51.198;4.468;2023-08-06T14:36:26;15.40;99.90
22706;DHT22;11520;51.198;4.468;2023-08-06T14:38:52;15.60;99.90
22706;DHT22;11520;51.198;4.468;2023-08-06T14:41:17;15.90;99.90
22706;DHT22;11520;51.198;4.468;2023-08-06T14:43:43;15.90;99.90
22706;DHT22;11520;51.198;4.468;2023-08-06T14:46:08;15.90;99.90
22706;DHT22;11520;51.198;4.468;2023-08-06T14:48:34;15.80;99.90
22706;DHT22;11520;51.198;4.468;2023-08-06T14:51:00;15.90;99.90
22706;DHT22;11520;51.198;4.468;2023-08-06T14:53:26;16.00;99.90
22706;DHT22;11520;51.198;4.468;2023-08-06T14:55:52;15.80;99.90
22706;DHT22;11520;51.198;4.468;2023-08-06T14:58:17;15.80;99.90
22706;DHT22;11520;51.198;4.468;2023-08-06T15:00:45;15.80;99.90
22706;DHT22;11520;51.198;4.468;2023-08-06T15:03:12;15.80;99.90
22706;DHT22;11520;51.198;4.468;2023-08-06T15:05:38;15.80;99.90
22706;DHT22;11520;51.198;4.468;2023-08-06T15:08:03;15.80;99.90
22706;DHT22;11520;51.198;4.468;2023-08-06T15:10:34;16.00;99.90
22706;DHT22;11520;51.198;4.468;2023-08-06T15:13:03;16.00;99.90
22706;DHT22;11520;51.198;4.468;2023-08-06T15:16:09;15.90;99.90
22706;DHT22;11520;51.198;4.468;2023-08-06T15:22:56;15.50;99.90
22706;DHT22;11520;51.198;4.468;2023-08-06T15:26:01;15.40;99.90
22706;DHT22;11520;51.198;4.468;2023-08-06T15:28:26;15.50;99.90
22706;DHT22;11520;51.198;4.468;2023-08-06T15:30:55;15.50;99.90
22706;DHT22;11520;51.198;4.468;2023-08-06T15:33:21;15.40;99.90
22706;DHT22;11520;51.198;4.468;2023-08-06T15:35:48;15.40;99.90
22706;DHT22;11520;51.198;4.468;2023-08-06T15:38:15;15.40;99.90
22706;DHT22;11520;51.198;4.468;2023-08-06T15:40:41;15.60;99.90
22706;DHT22;11520;51.198;4.468;2023-08-06T15:43:07;15.90;99.90
22706;DHT22;11520;51.198;4.468;2023-08-06T15:45:32;15.80;99.90
22706;DHT22;11520;51.198;4.468;2023-08-06T15:47:58;15.90;99.90